Albany, Australia
Current Conditions -  °F | °C
As of 5:30 AM on Saturday 25 Oct 2014 (Local Time) from YABA Reporting Station
Overcast Overcast  
Wind Chill: 55°   Ceiling: 100
Heat Index: 55°   Visibility: 0.43mi
Dew Point: 55°   Wind: 9mph
Humidity: 100%   Direction: 360°N
Pressure: 29.94"   Gusts: NA
Location:  35.02°S, 117.88°E
Report Text: YABA 242130Z AUTO 36008KT 0700 // OVC001 13/13 Q1014
Loading
Personal Weather Stations






























Interactive Weather Map
Tropical Storm Tracking
New forecast layout! Learn more

10-Day Weather Forecast

Advertisements
Track Severe Weather on mobile